Time;durP1;ratioP1;P1;durP2;ratioP2;P2;SDS_P1;SDS_P2;PMS_P1;PMS_P2;Temp;Humidity;BMP_temperature;BMP_pressure;BME280_temperature;BME280_humidity;BME280_pressure;Samples;Min_cycle;Max_cycle;Signal;HPM_P1;HPM_P2
2022/11/23 00:01:21;;;;;;;3.73;2.57;;;;;;;;;;5071990;28;20463;-77
2022/11/23 00:03:50;;;;;;;4.77;2.80;;;;;;;;;;5070586;28;20468;-76
2022/11/23 00:06:17;;;;;;;6.00;3.20;;;;;;;;;;5071000;28;20854;-76
2022/11/23 00:08:44;;;;;;;3.70;3.10;;;;;;;;;;5071664;28;20797;-77
2022/11/23 00:11:12;;;;;;;8.90;3.37;;;;;;;;;;5071559;28;20449;-77
2022/11/23 00:13:40;;;;;;;4.77;3.60;;;;;;;;;;5073197;28;20465;-77
2022/11/23 00:16:07;;;;;;;3.30;3.00;;;;;;;;;;5079395;28;20444;-78
2022/11/23 00:18:34;;;;;;;3.13;2.83;;;;;;;;;;5077016;28;20436;-77
2022/11/23 00:21:05;;;;;;;5.07;3.67;;;;;;;;;;5075642;28;20441;-76
2022/11/23 00:23:33;;;;;;;4.23;3.00;;;;;;;;;;5075499;28;21002;-78
2022/11/23 00:26:00;;;;;;;4.23;3.10;;;;;;;;;;5077285;28;20967;-79
2022/11/23 00:28:27;;;;;;;6.37;3.47;;;;;;;;;;5076021;28;20995;-78
2022/11/23 00:30:55;;;;;;;4.37;2.80;;;;;;;;;;5076742;28;20966;-79
2022/11/23 00:33:22;;;;;;;4.60;3.27;;;;;;;;;;5078320;28;20449;-79
2022/11/23 00:35:58;;;;;;;3.50;3.20;;;;;;;;;;5076230;28;20452;-77
2022/11/23 00:38:26;;;;;;;5.27;3.53;;;;;;;;;;5075265;28;20420;-78
2022/11/23 00:40:58;;;;;;;3.00;2.70;;;;;;;;;;5075955;28;20444;-78
2022/11/23 00:43:25;;;;;;;3.27;3.07;;;;;;;;;;5075024;28;20429;-76
2022/11/23 00:46:02;;;;;;;5.37;3.70;;;;;;;;;;5074873;28;20493;-76
2022/11/23 00:48:29;;;;;;;4.27;3.30;;;;;;;;;;5075335;28;20472;-77
2022/11/23 00:50:56;;;;;;;4.23;2.80;;;;;;;;;;5074773;28;20440;-79
2022/11/23 00:53:23;;;;;;;3.50;3.13;;;;;;;;;;5075778;28;20451;-77
2022/11/23 00:55:51;;;;;;;4.87;2.63;;;;;;;;;;5075383;28;20971;-77
2022/11/23 00:58:18;;;;;;;6.03;3.70;;;;;;;;;;5075576;28;20883;-77
2022/11/23 01:00:45;;;;;;;5.30;3.10;;;;;;;;;;5078232;28;20440;-77
2022/11/23 01:03:14;;;;;;;4.70;3.13;;;;;;;;;;5077885;28;20441;-77
2022/11/23 01:05:41;;;;;;;5.50;3.10;;;;;;;;;;5075383;28;20448;-77
2022/11/23 01:08:08;;;;;;;4.67;2.93;;;;;;;;;;5075904;28;20492;-76
2022/11/23 01:10:35;;;;;;;6.33;3.07;;;;;;;;;;5076423;28;20824;-78
2022/11/23 01:13:02;;;;;;;5.80;3.10;;;;;;;;;;5071295;28;20440;-77
2022/11/23 01:15:29;;;;;;;6.83;3.10;;;;;;;;;;5056427;28;20472;-77
2022/11/23 01:17:56;;;;;;;6.80;3.17;;;;;;;;;;5056231;28;20437;-77
2022/11/23 01:20:25;;;;;;;3.43;3.13;;;;;;;;;;5055532;28;20468;-78
2022/11/23 01:22:52;;;;;;;4.60;3.40;;;;;;;;;;5054418;28;20452;-77
2022/11/23 01:25:19;;;;;;;4.97;2.50;;;;;;;;;;5053014;28;20477;-77
2022/11/23 01:27:46;;;;;;;2.80;2.60;;;;;;;;;;5056202;28;20492;-76
2022/11/23 01:30:14;;;;;;;4.00;2.90;;;;;;;;;;5056888;28;20450;-76
2022/11/23 01:32:41;;;;;;;3.67;2.37;;;;;;;;;;5058782;28;20449;-76
2022/11/23 01:35:08;;;;;;;4.10;2.93;;;;;;;;;;5060589;28;20469;-77
2022/11/23 01:37:37;;;;;;;2.60;2.40;;;;;;;;;;5056066;28;20430;-77
2022/11/23 01:40:04;;;;;;;3.93;2.70;;;;;;;;;;5055565;28;21020;-77
2022/11/23 01:42:44;;;;;;;3.80;2.93;;;;;;;;;;5055811;28;20465;-76
2022/11/23 01:45:30;;;;;;;3.47;2.90;;;;;;;;;;5055681;28;20460;-77
2022/11/23 01:47:57;;;;;;;3.30;3.00;;;;;;;;;;5055690;28;20477;-77
2022/11/23 01:50:24;;;;;;;4.13;2.80;;;;;;;;;;5053339;28;20454;-77
2022/11/23 01:52:52;;;;;;;7.57;2.53;;;;;;;;;;5052828;28;21056;-77
2022/11/23 01:55:20;;;;;;;2.83;2.53;;;;;;;;;;5053094;28;20472;-77
2022/11/23 01:57:47;;;;;;;3.00;2.80;;;;;;;;;;5052955;28;20446;-77
2022/11/23 02:00:14;;;;;;;5.37;2.87;;;;;;;;;;5053643;28;20456;-77
2022/11/23 02:02:46;;;;;;;4.03;2.50;;;;;;;;;;5052848;28;20792;-77
2022/11/23 02:05:14;;;;;;;3.43;2.60;;;;;;;;;;5052759;28;20450;-77
2022/11/23 02:07:42;;;;;;;3.83;3.23;;;;;;;;;;5052793;28;20482;-77
2022/11/23 02:10:10;;;;;;;3.30;2.67;;;;;;;;;;5053384;28;20468;-77
2022/11/23 02:12:37;;;;;;;4.70;2.30;;;;;;;;;;5053181;28;20454;-78
2022/11/23 02:15:05;;;;;;;3.03;2.47;;;;;;;;;;5072322;28;20920;-76
2022/11/23 02:17:33;;;;;;;4.20;3.10;;;;;;;;;;5072734;28;20806;-78
2022/11/23 02:20:04;;;;;;;5.10;2.50;;;;;;;;;;5072659;28;20452;-76
2022/11/23 02:22:34;;;;;;;5.80;3.33;;;;;;;;;;5071945;28;20445;-76
2022/11/23 02:25:03;;;;;;;6.20;2.20;;;;;;;;;;5071987;28;20468;-77
2022/11/23 02:27:31;;;;;;;2.93;2.67;;;;;;;;;;5072215;28;20493;-78
2022/11/23 02:29:59;;;;;;;4.80;2.73;;;;;;;;;;5072436;28;20608;-78
2022/11/23 02:32:26;;;;;;;3.43;2.33;;;;;;;;;;5072297;28;20489;-77
2022/11/23 02:34:53;;;;;;;3.77;2.77;;;;;;;;;;5071515;28;20471;-76
2022/11/23 02:37:21;;;;;;;3.87;2.73;;;;;;;;;;5071917;28;20448;-76
2022/11/23 02:39:49;;;;;;;2.50;2.30;;;;;;;;;;5072685;28;20453;-77
2022/11/23 02:42:17;;;;;;;5.23;3.37;;;;;;;;;;5071547;28;20445;-77
2022/11/23 02:44:49;;;;;;;4.03;2.33;;;;;;;;;;5071645;28;20469;-76
2022/11/23 02:47:16;;;;;;;6.47;2.50;;;;;;;;;;5071763;28;20425;-77
2022/11/23 02:49:43;;;;;;;4.37;2.70;;;;;;;;;;5074530;28;20804;-77
2022/11/23 02:52:10;;;;;;;3.03;2.83;;;;;;;;;;5079894;28;20460;-77
2022/11/23 02:54:37;;;;;;;2.70;2.17;;;;;;;;;;5076576;28;20976;-76
2022/11/23 02:57:05;;;;;;;3.53;2.47;;;;;;;;;;5071908;28;20436;-79
2022/11/23 02:59:32;;;;;;;2.50;2.30;;;;;;;;;;5062607;28;20453;-77
2022/11/23 03:02:01;;;;;;;4.30;2.60;;;;;;;;;;5070610;28;20866;-77
2022/11/23 03:04:28;;;;;;;5.83;2.80;;;;;;;;;;5070743;28;20460;-76
2022/11/23 03:06:55;;;;;;;2.50;2.30;;;;;;;;;;5072353;28;20804;-78
2022/11/23 03:09:22;;;;;;;8.53;2.80;;;;;;;;;;5071960;28;20481;-78
2022/11/23 03:11:49;;;;;;;5.53;2.57;;;;;;;;;;5072272;28;20463;-78
2022/11/23 03:14:17;;;;;;;5.30;2.50;;;;;;;;;;5071939;28;20457;-76
2022/11/23 03:16:44;;;;;;;2.50;2.30;;;;;;;;;;5072375;28;20807;-77
2022/11/23 03:19:12;;;;;;;3.33;2.70;;;;;;;;;;5072009;28;20445;-77
2022/11/23 03:21:39;;;;;;;2.67;2.30;;;;;;;;;;5071405;28;20452;-77
2022/11/23 03:24:06;;;;;;;3.50;2.40;;;;;;;;;;5071420;28;20484;-77
2022/11/23 03:26:33;;;;;;;2.40;2.23;;;;;;;;;;5075067;28;20451;-77
2022/11/23 03:29:01;;;;;;;2.97;2.10;;;;;;;;;;5071860;28;20483;-76
2022/11/23 03:31:28;;;;;;;7.23;3.10;;;;;;;;;;5071657;28;20464;-76
2022/11/23 03:33:55;;;;;;;5.07;2.70;;;;;;;;;;5074394;28;21022;-78
2022/11/23 03:36:23;;;;;;;7.10;3.50;;;;;;;;;;5074233;28;20921;-76
2022/11/23 03:38:50;;;;;;;9.80;4.60;;;;;;;;;;5073486;28;20955;-77
2022/11/23 03:41:17;;;;;;;4.80;3.57;;;;;;;;;;5072502;28;20467;-77
2022/11/23 03:43:44;;;;;;;4.53;3.30;;;;;;;;;;5071085;28;20519;-77
2022/11/23 03:46:11;;;;;;;7.43;3.27;;;;;;;;;;5072290;28;20441;-77
2022/11/23 03:48:38;;;;;;;7.23;4.17;;;;;;;;;;5072545;28;20476;-76
2022/11/23 03:51:06;;;;;;;4.63;3.63;;;;;;;;;;5093312;28;20453;-77
2022/11/23 03:53:34;;;;;;;5.30;3.57;;;;;;;;;;5093423;28;20457;-76
2022/11/23 03:56:01;;;;;;;4.80;4.03;;;;;;;;;;5076683;28;20437;-77
2022/11/23 03:58:28;;;;;;;7.20;4.40;;;;;;;;;;5074803;28;20443;-77
2022/11/23 04:00:55;;;;;;;4.20;3.80;;;;;;;;;;5073009;28;20791;-77
2022/11/23 04:03:22;;;;;;;5.50;3.90;;;;;;;;;;5071664;28;20447;-76
2022/11/23 04:05:50;;;;;;;3.97;2.70;;;;;;;;;;5072669;28;20447;-77
2022/11/23 04:08:17;;;;;;;7.47;2.73;;;;;;;;;;5071616;28;20479;-77
2022/11/23 04:10:45;;;;;;;5.80;3.03;;;;;;;;;;5071335;28;20444;-77
2022/11/23 04:13:12;;;;;;;4.13;2.60;;;;;;;;;;5071319;28;20476;-76
2022/11/23 04:15:39;;;;;;;4.43;2.70;;;;;;;;;;5051622;28;20445;-77
2022/11/23 04:18:07;;;;;;;3.90;2.50;;;;;;;;;;5050786;28;20476;-76
2022/11/23 04:20:34;;;;;;;2.97;2.40;;;;;;;;;;5050672;28;20803;-77
2022/11/23 04:23:01;;;;;;;4.60;2.50;;;;;;;;;;5050286;28;20448;-77
2022/11/23 04:25:28;;;;;;;3.43;2.30;;;;;;;;;;5050583;28;20577;-78
2022/11/23 04:27:56;;;;;;;3.40;2.40;;;;;;;;;;5051069;28;20468;-76
2022/11/23 04:30:23;;;;;;;3.53;2.50;;;;;;;;;;5050732;28;20452;-76
2022/11/23 04:32:50;;;;;;;6.40;2.50;;;;;;;;;;5050251;28;20955;-78
2022/11/23 04:35:18;;;;;;;4.83;2.60;;;;;;;;;;5050361;28;20474;-77
2022/11/23 04:37:45;;;;;;;2.20;2.00;;;;;;;;;;5051024;28;20511;-77
2022/11/23 04:40:13;;;;;;;2.60;2.00;;;;;;;;;;5050615;28;20438;-78
2022/11/23 04:42:40;;;;;;;3.20;2.50;;;;;;;;;;5049706;28;20452;-77
2022/11/23 04:45:10;;;;;;;2.83;2.63;;;;;;;;;;5050105;28;20470;-77
2022/11/23 04:47:37;;;;;;;5.57;2.03;;;;;;;;;;5050689;28;20456;-77
2022/11/23 04:50:04;;;;;;;1.60;1.50;;;;;;;;;;5050639;28;20936;-77
2022/11/23 04:52:31;;;;;;;6.50;2.23;;;;;;;;;;5050329;28;20445;-77
2022/11/23 04:54:58;;;;;;;2.67;2.47;;;;;;;;;;5063081;28;20457;-77
2022/11/23 04:57:25;;;;;;;6.40;2.90;;;;;;;;;;5071127;28;20444;-77
2022/11/23 04:59:52;;;;;;;2.07;1.97;;;;;;;;;;5072953;28;20437;-77
2022/11/23 05:02:21;;;;;;;3.03;2.10;;;;;;;;;;5074782;28;20570;-77
2022/11/23 05:04:48;;;;;;;2.43;2.00;;;;;;;;;;5074101;28;20701;-77
2022/11/23 05:07:15;;;;;;;3.37;2.17;;;;;;;;;;5074144;28;20448;-76
2022/11/23 05:09:43;;;;;;;2.33;2.13;;;;;;;;;;5073832;28;20476;-77
2022/11/23 05:12:10;;;;;;;8.83;2.97;;;;;;;;;;5074063;28;20448;-76
2022/11/23 05:14:37;;;;;;;2.17;2.03;;;;;;;;;;5073368;28;20475;-77
2022/11/23 05:17:04;;;;;;;4.47;2.30;;;;;;;;;;5074029;28;20445;-77
2022/11/23 05:19:32;;;;;;;2.50;2.30;;;;;;;;;;5073667;28;20455;-76
2022/11/23 05:21:59;;;;;;;4.00;2.67;;;;;;;;;;5073467;28;20802;-77
2022/11/23 05:24:26;;;;;;;2.83;2.10;;;;;;;;;;5072959;28;20476;-78
2022/11/23 05:26:53;;;;;;;2.87;2.03;;;;;;;;;;5073907;28;20550;-77
2022/11/23 05:29:21;;;;;;;2.27;2.00;;;;;;;;;;5076080;28;20487;-77
2022/11/23 05:31:48;;;;;;;3.70;2.57;;;;;;;;;;5079708;28;20441;-77
2022/11/23 05:34:15;;;;;;;2.90;2.70;;;;;;;;;;5076491;28;20467;-76
2022/11/23 05:36:43;;;;;;;3.90;2.40;;;;;;;;;;5076893;28;20445;-78
2022/11/23 05:39:10;;;;;;;4.37;2.10;;;;;;;;;;5075898;28;20445;-78
2022/11/23 05:41:37;;;;;;;7.30;2.63;;;;;;;;;;5070139;28;20446;-77
2022/11/23 05:44:05;;;;;;;5.13;2.47;;;;;;;;;;5065307;28;20469;-78
2022/11/23 05:46:32;;;;;;;2.80;2.53;;;;;;;;;;5069933;28;20467;-77
2022/11/23 05:48:59;;;;;;;9.90;2.67;;;;;;;;;;5076766;28;20580;-77
2022/11/23 05:51:26;;;;;;;4.33;2.47;;;;;;;;;;5074607;28;20472;-77
2022/11/23 05:53:55;;;;;;;3.33;2.73;;;;;;;;;;5068479;28;20464;-77
2022/11/23 05:56:23;;;;;;;5.17;4.63;;;;;;;;;;5076864;28;20448;-77
2022/11/23 05:58:50;;;;;;;4.00;3.60;;;;;;;;;;5076380;28;20956;-78
2022/11/23 06:01:17;;;;;;;3.53;2.37;;;;;;;;;;5073969;28;20445;-78
2022/11/23 06:03:44;;;;;;;4.00;2.40;;;;;;;;;;5076037;28;20485;-77
2022/11/23 06:06:11;;;;;;;6.10;2.77;;;;;;;;;;5073220;28;20448;-77
2022/11/23 06:08:38;;;;;;;2.10;1.80;;;;;;;;;;5073231;28;20476;-77
2022/11/23 06:11:06;;;;;;;2.30;2.20;;;;;;;;;;5069956;28;20475;-77
2022/11/23 06:13:34;;;;;;;3.47;2.50;;;;;;;;;;5059130;28;20477;-77
2022/11/23 06:16:01;;;;;;;4.00;2.70;;;;;;;;;;5072858;28;20452;-77
2022/11/23 06:18:28;;;;;;;5.13;2.73;;;;;;;;;;5071502;28;20451;-76
2022/11/23 06:20:55;;;;;;;3.97;2.73;;;;;;;;;;5064091;28;20988;-77
2022/11/23 06:23:23;;;;;;;5.00;2.90;;;;;;;;;;5070705;28;20449;-77
2022/11/23 06:25:50;;;;;;;6.53;2.33;;;;;;;;;;5072573;28;20487;-77
2022/11/23 06:28:19;;;;;;;6.73;2.43;;;;;;;;;;5072193;28;20953;-78
2022/11/23 06:30:46;;;;;;;5.13;2.70;;;;;;;;;;5072420;28;20457;-77
2022/11/23 06:33:13;;;;;;;5.70;2.97;;;;;;;;;;5071798;28;20933;-77
2022/11/23 06:35:40;;;;;;;5.23;3.20;;;;;;;;;;5073868;28;20449;-79
2022/11/23 06:38:07;;;;;;;7.00;2.93;;;;;;;;;;5073060;28;20444;-78
2022/11/23 06:40:34;;;;;;;4.83;2.37;;;;;;;;;;5072843;28;20531;-77
2022/11/23 06:43:01;;;;;;;6.10;2.77;;;;;;;;;;5073213;28;20453;-77
2022/11/23 06:45:30;;;;;;;4.17;2.60;;;;;;;;;;5072206;28;20516;-78
2022/11/23 06:47:57;;;;;;;2.63;2.43;;;;;;;;;;5072495;28;20451;-78
2022/11/23 06:50:24;;;;;;;7.70;3.40;;;;;;;;;;5071870;28;20480;-76
2022/11/23 06:52:55;;;;;;;5.37;3.70;;;;;;;;;;5067458;28;20473;-77
2022/11/23 06:55:22;;;;;;;3.07;2.50;;;;;;;;;;5070659;28;20464;-79
2022/11/23 06:57:49;;;;;;;2.77;2.33;;;;;;;;;;5070259;28;20959;-76
2022/11/23 07:00:17;;;;;;;3.17;2.33;;;;;;;;;;5069192;28;20920;-77
2022/11/23 07:02:51;;;;;;;7.60;3.83;;;;;;;;;;5071443;28;20468;-77
2022/11/23 07:05:18;;;;;;;3.67;2.30;;;;;;;;;;5071198;28;20483;-77
2022/11/23 07:07:45;;;;;;;6.40;2.57;;;;;;;;;;5058813;28;20453;-78
2022/11/23 07:10:12;;;;;;;2.90;2.40;;;;;;;;;;5051853;28;20477;-77
2022/11/23 07:12:40;;;;;;;2.50;2.30;;;;;;;;;;5071082;28;20468;-78
2022/11/23 07:15:08;;;;;;;5.70;2.57;;;;;;;;;;5073048;28;20487;-78
2022/11/23 07:17:39;;;;;;;3.30;3.00;;;;;;;;;;5069037;28;20453;-78
2022/11/23 07:20:08;;;;;;;5.60;2.50;;;;;;;;;;5076718;28;20443;-77
2022/11/23 07:22:35;;;;;;;3.43;2.70;;;;;;;;;;5079518;28;20443;-77
2022/11/23 07:25:02;;;;;;;4.87;2.73;;;;;;;;;;5074649;28;20489;-76
2022/11/23 07:27:29;;;;;;;4.23;2.50;;;;;;;;;;5072527;28;20449;-77
2022/11/23 07:29:56;;;;;;;3.93;2.60;;;;;;;;;;5072709;28;20477;-78
2022/11/23 07:32:24;;;;;;;5.17;3.00;;;;;;;;;;5073918;28;20452;-78
2022/11/23 07:34:51;;;;;;;10.73;6.63;;;;;;;;;;5072562;28;20893;-78
2022/11/23 07:37:19;;;;;;;7.00;5.27;;;;;;;;;;5075215;28;20470;-78
2022/11/23 07:39:46;;;;;;;8.70;3.93;;;;;;;;;;5073757;28;20790;-77
2022/11/23 07:42:13;;;;;;;6.37;3.43;;;;;;;;;;5078513;28;20441;-77
2022/11/23 07:44:40;;;;;;;3.70;2.80;;;;;;;;;;5090670;28;20471;-76
2022/11/23 07:47:07;;;;;;;6.43;2.80;;;;;;;;;;5076352;28;20521;-76
2022/11/23 07:49:35;;;;;;;8.83;2.50;;;;;;;;;;5095580;28;20503;-77
2022/11/23 07:52:02;;;;;;;4.10;2.70;;;;;;;;;;5088777;28;20465;-77
2022/11/23 07:54:30;;;;;;;4.77;2.97;;;;;;;;;;5080703;28;20465;-77
2022/11/23 07:56:57;;;;;;;3.60;2.37;;;;;;;;;;5077248;28;21722;-77
2022/11/23 07:59:24;;;;;;;3.33;2.80;;;;;;;;;;5082330;28;20461;-76
2022/11/23 08:01:51;;;;;;;8.00;3.27;;;;;;;;;;5089946;28;20448;-78
2022/11/23 08:04:18;;;;;;;6.90;3.40;;;;;;;;;;5096236;28;20469;-77
2022/11/23 08:06:45;;;;;;;6.57;3.03;;;;;;;;;;5096966;28;20501;-77
2022/11/23 08:09:12;;;;;;;8.43;2.50;;;;;;;;;;5094823;28;20448;-76
2022/11/23 08:11:41;;;;;;;2.70;2.40;;;;;;;;;;5086307;28;20453;-78
2022/11/23 08:14:08;;;;;;;3.13;2.50;;;;;;;;;;5074437;28;20470;-77
2022/11/23 08:16:35;;;;;;;4.27;2.80;;;;;;;;;;5079267;28;20452;-77
2022/11/23 08:19:02;;;;;;;4.47;3.33;;;;;;;;;;5080910;28;20467;-76
2022/11/23 08:21:29;;;;;;;5.30;2.80;;;;;;;;;;5075729;28;20440;-78
2022/11/23 08:23:56;;;;;;;6.53;2.83;;;;;;;;;;5055173;28;20480;-78
2022/11/23 08:26:23;;;;;;;7.20;3.10;;;;;;;;;;5064599;28;20447;-78
2022/11/23 08:28:52;;;;;;;7.23;2.93;;;;;;;;;;5063567;28;20457;-77
2022/11/23 08:31:19;;;;;;;4.47;2.70;;;;;;;;;;5056673;28;20772;-79
2022/11/23 08:33:46;;;;;;;5.40;2.83;;;;;;;;;;5056424;28;20470;-78
2022/11/23 08:36:13;;;;;;;2.73;2.53;;;;;;;;;;5061260;28;20450;-77
2022/11/23 08:38:42;;;;;;;6.10;2.60;;;;;;;;;;5060598;28;21120;-78
2022/11/23 08:41:19;;;;;;;5.67;2.53;;;;;;;;;;5062748;28;20445;-77
2022/11/23 08:43:49;;;;;;;5.00;2.37;;;;;;;;;;5069410;28;20612;-77
2022/11/23 08:46:18;;;;;;;3.00;2.70;;;;;;;;;;5075798;28;20509;-76
2022/11/23 08:48:45;;;;;;;3.50;3.00;;;;;;;;;;5078416;28;20540;-78
2022/11/23 08:51:12;;;;;;;5.43;3.53;;;;;;;;;;5075519;28;20482;-78
2022/11/23 08:53:42;;;;;;;6.00;2.40;;;;;;;;;;5056723;28;20465;-78
2022/11/23 08:56:09;;;;;;;9.43;4.60;;;;;;;;;;5056705;28;20976;-77
2022/11/23 08:58:36;;;;;;;4.83;3.00;;;;;;;;;;5056265;28;20445;-77
2022/11/23 09:01:07;;;;;;;7.40;5.30;;;;;;;;;;5075613;28;20494;-78
2022/11/23 09:03:36;;;;;;;5.07;2.90;;;;;;;;;;5074110;28;20482;-76
2022/11/23 09:06:03;;;;;;;5.37;3.00;;;;;;;;;;5074615;28;20936;-78
2022/11/23 09:08:30;;;;;;;5.80;3.00;;;;;;;;;;5076897;28;20428;-78
2022/11/23 09:11:00;;;;;;;5.50;3.33;;;;;;;;;;5076494;28;20578;-77
2022/11/23 09:13:27;;;;;;;5.10;2.53;;;;;;;;;;5081780;28;20981;-79
2022/11/23 09:15:57;;;;;;;8.07;2.70;;;;;;;;;;5079927;28;20463;-78
2022/11/23 09:18:24;;;;;;;10.03;3.70;;;;;;;;;;5082548;28;20838;-78
2022/11/23 09:20:53;;;;;;;6.90;3.07;;;;;;;;;;5081419;28;20451;-79
2022/11/23 09:23:20;;;;;;;7.97;3.87;;;;;;;;;;5075933;28;20448;-77
2022/11/23 09:25:48;;;;;;;6.50;3.63;;;;;;;;;;5075447;28;20432;-78
2022/11/23 09:28:18;;;;;;;3.27;2.37;;;;;;;;;;5076477;28;20453;-78
2022/11/23 09:30:45;;;;;;;3.77;2.93;;;;;;;;;;5074968;28;20534;-77
2022/11/23 09:33:12;;;;;;;4.70;3.03;;;;;;;;;;5074372;28;20488;-78
2022/11/23 09:35:39;;;;;;;5.30;2.80;;;;;;;;;;5075435;28;20444;-77
2022/11/23 09:38:08;;;;;;;5.53;4.20;;;;;;;;;;5069420;28;20450;-79
2022/11/23 09:40:39;;;;;;;6.03;4.17;;;;;;;;;;5067390;28;20455;-79
2022/11/23 09:43:17;;;;;;;7.87;4.07;;;;;;;;;;5077370;28;20445;-79
2022/11/23 09:45:48;;;;;;;6.20;3.50;;;;;;;;;;5074946;28;20445;-77
2022/11/23 09:48:30;;;;;;;5.13;3.50;;;;;;;;;;5075465;28;20437;-78
2022/11/23 09:51:00;;;;;;;9.30;3.63;;;;;;;;;;5073840;28;20492;-77
2022/11/23 09:53:32;;;;;;;5.23;3.77;;;;;;;;;;5077079;28;20448;-78
2022/11/23 09:56:00;;;;;;;7.07;3.10;;;;;;;;;;5075911;28;20452;-78
2022/11/23 09:58:30;;;;;;;6.30;2.70;;;;;;;;;;5074340;28;20948;-77
2022/11/23 10:01:00;;;;;;;4.20;2.13;;;;;;;;;;5070242;28;20453;-77
2022/11/23 10:03:28;;;;;;;4.50;3.13;;;;;;;;;;5072004;28;20514;-77
2022/11/23 10:06:01;;;;;;;6.60;2.90;;;;;;;;;;5072264;28;20498;-76
2022/11/23 10:08:36;;;;;;;4.90;2.50;;;;;;;;;;5073075;28;20436;-77
2022/11/23 10:11:07;;;;;;;3.73;2.13;;;;;;;;;;5072648;28;20963;-77
2022/11/23 10:13:35;;;;;;;6.87;3.17;;;;;;;;;;5072117;28;20472;-78
2022/11/23 10:16:10;;;;;;;4.30;2.70;;;;;;;;;;5074568;28;20447;-77
2022/11/23 10:18:44;;;;;;;6.07;3.00;;;;;;;;;;5077170;28;20448;-76
2022/11/23 10:21:15;;;;;;;2.57;2.20;;;;;;;;;;5074457;28;20443;-76
2022/11/23 10:23:54;;;;;;;3.30;2.60;;;;;;;;;;5076337;28;20484;-78
2022/11/23 10:26:22;;;;;;;4.07;2.17;;;;;;;;;;5074625;28;20445;-76
2022/11/23 10:28:50;;;;;;;5.60;1.97;;;;;;;;;;5075700;28;20440;-76
2022/11/23 10:31:18;;;;;;;3.20;1.60;;;;;;;;;;5082600;28;20991;-80
2022/11/23 10:33:55;;;;;;;2.60;1.37;;;;;;;;;;5077943;28;20487;-76
2022/11/23 10:36:22;;;;;;;2.30;1.90;;;;;;;;;;5074457;28;20444;-76
2022/11/23 10:38:51;;;;;;;4.43;2.00;;;;;;;;;;5073854;28;21111;-77
2022/11/23 10:41:19;;;;;;;4.80;2.50;;;;;;;;;;5072460;28;20443;-76
2022/11/23 10:43:49;;;;;;;2.53;1.57;;;;;;;;;;5071735;28;20464;-76
2022/11/23 10:46:27;;;;;;;3.00;1.83;;;;;;;;;;5073090;28;20541;-77
2022/11/23 10:48:54;;;;;;;5.40;2.03;;;;;;;;;;5071643;28;20451;-79
2022/11/23 10:51:24;;;;;;;3.50;2.07;;;;;;;;;;5075665;28;20479;-77
2022/11/23 10:53:53;;;;;;;2.77;2.13;;;;;;;;;;5071274;28;20745;-77
2022/11/23 10:56:22;;;;;;;4.53;2.10;;;;;;;;;;5072410;28;20441;-78
2022/11/23 10:58:49;;;;;;;3.90;2.10;;;;;;;;;;5072148;28;20498;-77
2022/11/23 11:01:17;;;;;;;2.90;1.97;;;;;;;;;;5072637;28;20445;-77
2022/11/23 11:03:46;;;;;;;2.10;1.90;;;;;;;;;;5073413;28;20471;-77
2022/11/23 11:06:25;;;;;;;3.10;2.30;;;;;;;;;;5074743;28;20560;-77
2022/11/23 11:08:53;;;;;;;6.67;2.40;;;;;;;;;;5072459;28;20943;-77
2022/11/23 11:11:25;;;;;;;5.60;2.60;;;;;;;;;;5072040;28;20503;-78
2022/11/23 11:13:52;;;;;;;3.80;2.67;;;;;;;;;;5059985;28;20487;-77
2022/11/23 11:16:21;;;;;;;6.50;2.60;;;;;;;;;;5052305;28;20452;-77
2022/11/23 11:18:48;;;;;;;4.90;2.63;;;;;;;;;;5051624;28;20445;-77
2022/11/23 11:21:19;;;;;;;3.03;2.27;;;;;;;;;;5051981;28;20450;-76
2022/11/23 11:23:51;;;;;;;3.33;2.37;;;;;;;;;;5052338;28;20480;-78
2022/11/23 11:26:20;;;;;;;4.87;2.70;;;;;;;;;;5052051;28;20446;-77
2022/11/23 11:28:49;;;;;;;6.00;2.70;;;;;;;;;;5051998;28;20957;-77
2022/11/23 11:31:26;;;;;;;3.53;2.50;;;;;;;;;;5052198;28;20572;-77
2022/11/23 11:33:56;;;;;;;3.27;2.07;;;;;;;;;;5051861;28;20480;-77
2022/11/23 11:36:24;;;;;;;3.33;2.50;;;;;;;;;;5052343;28;20461;-78
2022/11/23 11:38:54;;;;;;;5.37;2.00;;;;;;;;;;5055576;28;20456;-77
2022/11/23 11:41:24;;;;;;;2.73;2.23;;;;;;;;;;5061336;28;20437;-76
2022/11/23 11:43:56;;;;;;;3.20;2.00;;;;;;;;;;5062755;28;20470;-76
2022/11/23 11:46:24;;;;;;;3.00;1.93;;;;;;;;;;5059632;28;20425;-77
2022/11/23 11:48:53;;;;;;;3.93;2.30;;;;;;;;;;5055459;28;20446;-77
2022/11/23 11:51:23;;;;;;;4.90;2.47;;;;;;;;;;5056809;28;20477;-78
2022/11/23 11:53:55;;;;;;;2.83;2.00;;;;;;;;;;5057802;28;20469;-78
2022/11/23 11:56:25;;;;;;;4.00;1.90;;;;;;;;;;5051266;28;20445;-77
2022/11/23 11:58:56;;;;;;;2.13;2.00;;;;;;;;;;5051694;28;20438;-77
2022/11/23 12:01:29;;;;;;;4.80;2.10;;;;;;;;;;5051080;28;20445;-77
2022/11/23 12:03:58;;;;;;;5.00;2.10;;;;;;;;;;5050060;28;20969;-78
2022/11/23 12:06:28;;;;;;;5.17;2.13;;;;;;;;;;5051692;28;20541;-77
2022/11/23 12:08:58;;;;;;;2.20;2.00;;;;;;;;;;5050708;28;20451;-77
2022/11/23 12:11:26;;;;;;;2.13;2.00;;;;;;;;;;5053614;28;20496;-78
2022/11/23 12:13:58;;;;;;;4.07;2.37;;;;;;;;;;5064277;28;20464;-77
2022/11/23 12:16:29;;;;;;;2.30;1.70;;;;;;;;;;5073574;28;20432;-77
2022/11/23 12:19:07;;;;;;;2.80;2.37;;;;;;;;;;5073433;28;20653;-78
2022/11/23 12:21:43;;;;;;;4.23;2.77;;;;;;;;;;5075323;28;20440;-78
2022/11/23 12:24:13;;;;;;;5.57;1.73;;;;;;;;;;5075231;28;20474;-77
2022/11/23 12:26:45;;;;;;;1.73;1.40;;;;;;;;;;5074765;28;20445;-77
2022/11/23 12:29:24;;;;;;;2.77;1.53;;;;;;;;;;5074034;28;20928;-77
2022/11/23 12:31:52;;;;;;;1.47;1.40;;;;;;;;;;5074780;28;20975;-77
2022/11/23 12:34:28;;;;;;;1.83;1.70;;;;;;;;;;5074296;28;20560;-77
2022/11/23 12:37:09;;;;;;;1.50;1.40;;;;;;;;;;5076233;28;20437;-78
2022/11/23 12:39:53;;;;;;;2.57;1.40;;;;;;;;;;5078390;28;20456;-76
2022/11/23 12:42:22;;;;;;;1.57;1.47;;;;;;;;;;5077827;28;20445;-77
2022/11/23 12:44:57;;;;;;;1.53;1.30;;;;;;;;;;5077358;28;20468;-76
2022/11/23 12:47:32;;;;;;;1.67;1.43;;;;;;;;;;5075802;28;20436;-78
2022/11/23 12:50:04;;;;;;;1.90;1.70;;;;;;;;;;5075065;28;20486;-77
2022/11/23 12:52:39;;;;;;;4.07;1.43;;;;;;;;;;5072921;28;20491;-77
2022/11/23 12:55:13;;;;;;;2.00;1.47;;;;;;;;;;5071777;28;20581;-78
2022/11/23 12:57:43;;;;;;;3.37;1.50;;;;;;;;;;5073782;28;20454;-78
2022/11/23 13:00:16;;;;;;;1.20;1.20;;;;;;;;;;5072395;28;20452;-77
2022/11/23 13:02:59;;;;;;;0.90;0.90;;;;;;;;;;5073708;28;20455;-78
2022/11/23 13:05:44;;;;;;;4.43;1.20;;;;;;;;;;5074770;28;20984;-77
2022/11/23 13:08:21;;;;;;;7.27;1.33;;;;;;;;;;5073928;28;20451;-78
2022/11/23 13:11:03;;;;;;;3.30;1.53;;;;;;;;;;5079514;28;20968;-78
2022/11/23 13:13:38;;;;;;;1.90;1.53;;;;;;;;;;5076326;28;20448;-77
2022/11/23 13:16:16;;;;;;;2.87;1.60;;;;;;;;;;5075177;28;20444;-78
2022/11/23 13:18:52;;;;;;;3.63;1.80;;;;;;;;;;5073408;28;20432;-76
2022/11/23 13:21:26;;;;;;;3.70;2.10;;;;;;;;;;5072531;28;20598;-76
2022/11/23 13:23:53;;;;;;;2.23;1.30;;;;;;;;;;5072612;28;20501;-77
2022/11/23 13:26:21;;;;;;;7.40;1.90;;;;;;;;;;5074068;28;20879;-77
2022/11/23 13:28:50;;;;;;;1.63;1.50;;;;;;;;;;5074605;28;20433;-77
2022/11/23 13:31:23;;;;;;;3.43;1.60;;;;;;;;;;5074407;28;20481;-77
2022/11/23 13:33:51;;;;;;;5.03;1.50;;;;;;;;;;5082244;28;20532;-77
2022/11/23 13:36:33;;;;;;;2.00;1.17;;;;;;;;;;5074997;28;20436;-76
2022/11/23 13:39:01;;;;;;;4.57;1.67;;;;;;;;;;5074411;28;20448;-77
2022/11/23 13:41:55;;;;;;;1.87;1.50;;;;;;;;;;5074569;28;20443;-76
2022/11/23 13:44:24;;;;;;;5.87;1.67;;;;;;;;;;5074183;28;20460;-76
2022/11/23 13:47:00;;;;;;;3.70;1.60;;;;;;;;;;5074189;28;20440;-77
2022/11/23 13:49:30;;;;;;;3.60;1.23;;;;;;;;;;5073325;28;20444;-77
2022/11/23 13:52:05;;;;;;;3.70;1.60;;;;;;;;;;5073304;28;20534;-77
2022/11/23 13:54:33;;;;;;;4.30;1.37;;;;;;;;;;5072649;28;20468;-75
2022/11/23 13:57:02;;;;;;;2.27;1.43;;;;;;;;;;5073096;28;20440;-77
2022/11/23 13:59:31;;;;;;;1.80;1.23;;;;;;;;;;5072944;28;20858;-76
2022/11/23 14:02:00;;;;;;;1.50;1.40;;;;;;;;;;5073014;28;20448;-76
2022/11/23 14:04:27;;;;;;;1.20;1.20;;;;;;;;;;5072543;28;21048;-76
2022/11/23 14:06:57;;;;;;;3.43;1.50;;;;;;;;;;5072382;28;20453;-76
2022/11/23 14:09:25;;;;;;;3.37;1.20;;;;;;;;;;5072389;28;20460;-76
2022/11/23 14:12:04;;;;;;;2.70;1.83;;;;;;;;;;5072328;28;20507;-76
2022/11/23 14:14:36;;;;;;;2.80;1.47;;;;;;;;;;5056037;28;20969;-76
2022/11/23 14:17:24;;;;;;;4.00;1.40;;;;;;;;;;5052444;28;20449;-75
2022/11/23 14:20:04;;;;;;;1.83;1.47;;;;;;;;;;5034778;28;20488;-76
2022/11/23 14:22:37;;;;;;;2.80;1.73;;;;;;;;;;5052265;28;20513;-76
2022/11/23 14:25:17;;;;;;;4.43;1.70;;;;;;;;;;5051968;28;20473;-77
2022/11/23 14:27:51;;;;;;;7.20;1.70;;;;;;;;;;5052222;28;20899;-76
2022/11/23 14:30:29;;;;;;;3.73;1.63;;;;;;;;;;5052249;28;20453;-76
2022/11/23 14:33:03;;;;;;;3.40;1.60;;;;;;;;;;5053457;28;20472;-76
2022/11/23 14:35:33;;;;;;;3.27;1.57;;;;;;;;;;5052196;28;20462;-76
2022/11/23 14:38:33;;;;;;;3.23;1.73;;;;;;;;;;5052099;28;20456;-76
2022/11/23 14:41:05;;;;;;;2.73;1.70;;;;;;;;;;5052268;28;20908;-76
2022/11/23 14:43:32;;;;;;;2.63;1.47;;;;;;;;;;5051794;28;20518;-77
2022/11/23 14:46:01;;;;;;;1.87;1.67;;;;;;;;;;5052059;28;20813;-76
2022/11/23 14:48:30;;;;;;;3.03;1.47;;;;;;;;;;5052029;28;20446;-76
2022/11/23 14:51:00;;;;;;;2.00;1.37;;;;;;;;;;5051834;28;20442;-76
2022/11/23 14:53:29;;;;;;;4.73;1.37;;;;;;;;;;5051100;28;20946;-76
2022/11/23 14:55:57;;;;;;;3.27;1.30;;;;;;;;;;5051627;28;20464;-76